Time;durP1;ratioP1;P1;durP2;ratioP2;P2;SDS_P1;SDS_P2;PMS_P1;PMS_P2;Temp;Humidity;BMP_temperature;BMP_pressure;BME280_temperature;BME280_humidity;BME280_pressure;Samples;Min_cycle;Max_cycle;Signal;HPM_P1;HPM_P2
2021/12/28 00:04:15;;;;;;;;;;;;;;;;;;;;;
2021/12/28 00:09:33;;;;;;;53.30;23.30;;;;;;;-6.25;79.18;98041.58;213240;1328;22734;-74
2021/12/28 00:15:06;;;;;;;51.70;23.90;;;;;;;-6.33;79.08;98044.88;213486;1327;22618;-74
2021/12/28 00:20:18;;;;;;;;;;;;;;;;;;;;;
2021/12/28 00:25:29;;;;;;;56.70;24.50;;;;;;;-6.37;79.38;98035.00;213323;1326;22785;-74
2021/12/28 00:30:46;;;;;;;65.40;26.00;;;;;;;-6.40;79.37;98040.08;213304;1323;22821;-73
2021/12/28 00:36:01;;;;;;;59.80;24.30;;;;;;;-6.46;79.26;98040.55;213106;1327;22803;-75
2021/12/28 00:41:18;;;;;;;50.70;22.40;;;;;;;-6.50;79.42;98042.66;213437;1327;25407;-74
2021/12/28 00:46:20;;;;;;;49.60;23.20;;;;;;;-6.53;79.69;98042.05;213194;1329;22960;-73
2021/12/28 00:51:56;;;;;;;;;;;;;;;;;;;;;
2021/12/28 00:58:08;;;;;;;51.20;22.70;;;;;;;-6.38;79.89;98045.38;213115;1327;22698;-74
2021/12/28 01:03:45;;;;;;;;;;;;;;;;;;;;;
2021/12/28 01:08:51;;;;;;;47.30;22.80;;;;;;;-6.21;80.16;98043.94;213486;1327;25475;-74
2021/12/28 01:14:27;;;;;;;47.90;22.40;;;;;;;-6.15;79.92;98039.45;213463;1328;25670;-75
2021/12/28 01:20:09;;;;;;;52.20;22.60;;;;;;;-6.08;80.13;98026.98;213101;1326;22757;-73
2021/12/28 01:26:04;;;;;;;45.50;22.40;;;;;;;-6.06;79.96;98023.98;213411;1326;22815;-75
2021/12/28 01:32:10;;;;;;;47.00;22.20;;;;;;;-6.02;80.11;98017.29;213113;1324;22723;-74
2021/12/28 01:38:04;;;;;;;;;;;;;;;;;;;;;
2021/12/28 01:43:40;;;;;;;45.90;21.20;;;;;;;-5.88;80.29;97994.02;213293;1328;22805;-74
2021/12/28 01:49:23;;;;;;;;;;;;;;;;;;;;;
2021/12/28 01:54:29;;;;;;;41.30;19.80;;;;;;;-6.01;79.76;98001.19;213001;1324;24209;-75
2021/12/28 01:59:41;;;;;;;46.70;22.20;;;;;;;-6.14;79.79;97995.73;213377;1325;24712;-74
2021/12/28 02:05:06;;;;;;;;;;;;;;;;;;;;;
2021/12/28 02:11:39;;;;;;;46.50;22.00;;;;;;;-6.18;80.07;97990.05;212868;1324;22899;-73
2021/12/28 02:16:50;;;;;;;50.80;23.20;;;;;;;-6.12;80.53;98001.03;212689;1330;22809;-74
2021/12/28 02:23:04;;;;;;;;;;;;;;;;;;;;;
2021/12/28 02:28:51;;;;;;;40.80;19.20;;;;;;;-5.84;80.86;97976.08;213130;1328;22690;-74
2021/12/28 02:34:11;;;;;;;45.30;20.50;;;;;;;-5.65;80.99;97980.08;213221;1325;22706;-75
2021/12/28 02:39:45;;;;;;;40.50;19.30;;;;;;;-5.53;80.82;97979.48;213362;1325;22669;-73
2021/12/28 02:45:07;;;;;;;41.90;19.60;;;;;;;-5.43;80.92;97975.94;213410;1324;24221;-74
2021/12/28 02:50:51;;;;;;;40.90;18.80;;;;;;;-5.26;80.82;97973.46;213277;1323;22830;-74
2021/12/28 02:56:13;;;;;;;39.30;16.90;;;;;;;-5.17;80.73;97968.52;213284;1321;22665;-73
2021/12/28 03:01:22;;;;;;;40.30;18.40;;;;;;;-5.12;80.72;97958.13;213494;1324;25504;-73
2021/12/28 03:07:22;;;;;;;43.80;18.90;;;;;;;-5.10;80.50;97958.27;213378;1327;23924;-74
2021/12/28 03:12:24;;;;;;;45.70;19.70;;;;;;;-5.16;80.60;97955.10;213224;1329;22587;-74
2021/12/28 03:17:40;;;;;;;37.50;18.90;;;;;;;-5.21;80.46;97953.23;213388;1328;22594;-74
2021/12/28 03:22:49;;;;;;;46.00;20.50;;;;;;;-5.21;80.65;97946.63;213268;1328;24032;-75
2021/12/28 03:28:16;;;;;;;41.00;18.60;;;;;;;-5.24;80.76;97946.13;213507;1327;22633;-73
2021/12/28 03:33:40;;;;;;;43.10;19.70;;;;;;;-5.25;80.84;97947.98;213316;1328;22638;-74
2021/12/28 03:39:55;;;;;;;45.10;19.80;;;;;;;-5.25;80.90;97946.82;213367;1328;22967;-74
2021/12/28 03:46:10;;;;;;;44.10;19.00;;;;;;;-5.26;80.84;97945.69;213810;1321;22772;-73
2021/12/28 03:52:04;;;;;;;;;;;;;;;;;;;;;
2021/12/28 03:58:27;;;;;;;;;;;;;;;;;;;;;
2021/12/28 04:04:10;;;;;;;48.30;21.40;;;;;;;-5.45;80.96;97940.36;213324;1321;25475;-73
2021/12/28 04:09:22;;;;;;;35.20;17.60;;;;;;;-5.51;81.05;97934.92;213425;1325;23262;-74
2021/12/28 04:15:06;;;;;;;51.60;21.70;;;;;;;-5.56;81.28;97940.27;213858;1327;22808;-74
2021/12/28 04:20:23;;;;;;;47.20;22.50;;;;;;;-5.67;81.04;97937.70;213058;1329;22766;-74
2021/12/28 04:26:05;;;;;;;;;;;;;;;;;;;;;
2021/12/28 04:31:19;;;;;;;46.40;20.20;;;;;;;-5.87;81.16;97942.41;213323;1325;24260;-75
2021/12/28 04:36:29;;;;;;;43.70;20.50;;;;;;;-5.89;81.59;97940.61;213663;1325;22678;-74
2021/12/28 04:41:59;;;;;;;44.10;20.00;;;;;;;-5.79;82.03;97936.58;213363;1321;26094;-74
2021/12/28 04:48:21;;;;;;;;;;;;;;;;;;;;;
2021/12/28 04:54:31;;;;;;;50.00;22.60;;;;;;;-5.79;81.80;97930.00;213150;1324;22942;-73
2021/12/28 05:00:09;;;;;;;;;;;;;;;;;;;;;
2021/12/28 05:05:18;;;;;;;48.60;22.40;;;;;;;-5.76;81.96;97930.39;213379;1324;24033;-74
2021/12/28 05:10:22;;;;;;;39.60;18.70;;;;;;;-5.72;81.74;97920.64;213310;1327;22725;-71
2021/12/28 05:15:49;;;;;;;41.60;18.70;;;;;;;-5.78;81.76;97921.80;213457;1321;25942;-75
2021/12/28 05:21:15;;;;;;;54.10;22.70;;;;;;;-5.75;81.95;97913.06;213241;1324;23554;-74
2021/12/28 05:26:33;;;;;;;46.70;21.10;;;;;;;-5.71;82.22;97916.70;213546;1320;23418;-74
2021/12/28 05:32:13;;;;;;;41.50;19.20;;;;;;;-5.73;81.93;97909.40;213117;1328;25687;-75
2021/12/28 05:37:20;;;;;;;47.30;22.70;;;;;;;-5.68;82.33;97906.89;213026;1329;23019;-74
2021/12/28 05:43:14;;;;;;;53.20;21.40;;;;;;;-5.59;82.38;97905.59;213041;1330;23172;-73
2021/12/28 05:49:34;;;;;;;44.50;22.50;;;;;;;-5.50;82.45;97903.95;213119;1324;22974;-73
2021/12/28 05:55:11;;;;;;;57.10;24.90;;;;;;;-5.48;82.30;97906.89;213720;1321;24287;-74
2021/12/28 06:01:18;;;;;;;56.50;22.70;;;;;;;-5.51;82.24;97903.49;213903;1325;22777;-75
2021/12/28 06:06:56;;;;;;;49.10;21.00;;;;;;;-5.52;82.23;97904.36;213282;1325;22810;-74
2021/12/28 06:19:17;;;;;;;47.80;21.80;;;;;;;-5.57;82.24;97899.36;213347;1320;22738;-74
2021/12/28 06:24:50;;;;;;;42.80;20.10;;;;;;;-5.62;82.27;97902.42;213579;1321;22879;-74
2021/12/28 06:30:33;;;;;;;;;;;;;;;;;;;;;
2021/12/28 06:36:11;;;;;;;;;;;;;;;;;;;;;
2021/12/28 06:41:30;;;;;;;53.00;23.70;;;;;;;-5.29;82.45;97920.83;213464;1321;22670;-75
2021/12/28 06:47:47;;;;;;;;;;;;;;;;;;;;;
2021/12/28 06:53:54;;;;;;;51.80;24.20;;;;;;;-5.24;82.11;97920.02;213194;1323;22723;-75
2021/12/28 06:59:03;;;;;;;59.50;25.20;;;;;;;-5.28;82.13;97921.84;213739;1324;25962;-74
2021/12/28 07:04:21;;;;;;;;;;;;;;;;;;;;;
2021/12/28 07:09:54;;;;;;;51.20;24.80;;;;;;;-5.38;82.09;97925.71;214026;1320;24371;-74
2021/12/28 07:15:01;;;;;;;51.70;24.70;;;;;;;-5.35;82.07;97921.66;213251;1321;24506;-75
2021/12/28 07:21:15;;;;;;;45.10;20.90;;;;;;;-5.31;82.36;97919.80;213643;1320;22995;-74
2021/12/28 07:32:37;;;;;;;53.50;24.70;;;;;;;-5.21;82.40;97929.00;213223;1323;25600;-74
2021/12/28 07:37:48;;;;;;;47.10;22.10;;;;;;;-5.10;82.27;97926.91;207883;1321;7674710;-74
2021/12/28 07:42:51;;;;;;;51.30;24.90;;;;;;;-4.97;82.55;97931.39;213439;1321;26767;-74
2021/12/28 07:48:05;;;;;;;44.50;22.80;;;;;;;-4.80;82.47;97936.97;213091;1324;22818;-74
2021/12/28 07:53:58;;;;;;;;;;;;;;;-4.65;82.48;97936.23;213799;1321;22628;-73
2021/12/28 08:00:14;;;;;;;;;;;;;;;;;;;;;
2021/12/28 08:05:19;;;;;;;52.20;23.30;;;;;;;-4.30;82.37;97930.26;213409;1323;22735;-75
2021/12/28 08:11:03;;;;;;;54.60;26.70;;;;;;;-4.06;82.53;97934.30;213408;1321;22713;-74
2021/12/28 08:16:56;;;;;;;;;;;;;;;;;;;;;
2021/12/28 08:22:48;;;;;;;51.10;24.40;;;;;;;-3.56;82.05;97927.67;213698;1320;22762;-74
2021/12/28 08:27:54;;;;;;;46.10;22.60;;;;;;;-3.46;81.51;97910.32;212904;1324;24392;-74
2021/12/28 08:32:59;;;;;;;49.80;24.30;;;;;;;-3.44;81.25;97909.13;213431;1326;22725;-76
2021/12/28 08:38:34;;;;;;;40.00;21.20;;;;;;;-3.39;81.37;97906.10;213783;1325;22989;-74
2021/12/28 08:44:13;;;;;;;42.90;21.40;;;;;;;-3.33;81.31;97910.70;213388;1320;25785;-73
2021/12/28 08:49:54;;;;;;;44.30;22.40;;;;;;;-3.22;81.30;97904.16;213521;1321;22680;-74
2021/12/28 08:55:16;;;;;;;;;;;;;;;;;;;;;
2021/12/28 09:01:17;;;;;;;42.10;20.00;;;;;;;-3.02;81.13;97883.11;213699;1328;22772;-75
2021/12/28 09:07:54;;;;;;;42.20;21.20;;;;;;;-2.87;81.02;97878.94;213037;1323;24237;-76
2021/12/28 09:21:06;;;;;;;49.80;24.80;;;;;;;-2.72;80.61;97855.20;212922;1325;22578;-75
2021/12/28 09:27:59;;;;;;;;;;;;;;;;;;;;;
2021/12/28 09:34:10;;;;;;;;;;;;;;;;;;;;;
2021/12/28 09:39:48;;;;;;;51.90;25.10;;;;;;;-3.14;80.52;97835.80;213645;1321;23772;-77
2021/12/28 09:44:54;;;;;;;41.10;21.60;;;;;;;-3.21;80.48;97824.77;213590;1321;22601;-75
2021/12/28 09:50:19;;;;;;;;;;;;;;;;;;;;;
2021/12/28 09:55:47;;;;;;;38.70;19.40;;;;;;;-3.18;80.66;97811.70;213566;1322;22792;-75
2021/12/28 10:01:20;;;;;;;36.70;20.00;;;;;;;-3.11;80.74;97801.80;213466;1324;22658;-74
2021/12/28 10:08:06;;;;;;;33.30;17.00;;;;;;;-3.11;80.34;97800.71;213611;1321;24761;-75
2021/12/28 10:14:49;;;;;;;;;;;;;;;;;;;;;
2021/12/28 10:21:10;;;;;;;39.80;19.90;;;;;;;-2.96;80.79;97813.48;211693;1325;22687;-76
2021/12/28 10:27:36;;;;;;;48.80;23.90;;;;;;;-2.75;80.92;97813.70;213548;1323;24412;-75
2021/12/28 10:39:01;;;;;;;48.00;24.20;;;;;;;-2.14;80.89;97802.60;213438;1323;22717;-75
2021/12/28 10:45:39;;;;;;;;;;;;;;;;;;;;;
2021/12/28 10:58:20;;;;;;;;;;;;;;;;;;;;;
2021/12/28 11:11:47;;;;;;;40.70;21.80;;;;;;;-1.58;79.45;97773.38;213584;1323;22992;-77
2021/12/28 11:18:34;;;;;;;38.70;21.30;;;;;;;-1.48;79.64;97770.52;213778;1321;22665;-76
2021/12/28 11:25:37;;;;;;;38.30;18.60;;;;;;;-1.50;78.96;97753.29;213028;1327;22634;-75
2021/12/28 11:31:51;;;;;;;;;;;;;;;;;;;;;
2021/12/28 11:37:25;;;;;;;36.80;21.10;;;;;;;-1.64;78.93;97750.11;213322;1323;24269;-76
2021/12/28 11:48:46;;;;;;;;;;;;;;;;;;;;;
2021/12/28 12:03:00;;;;;;;40.20;20.40;;;;;;;-1.74;78.83;97722.71;213703;1321;22789;-76
2021/12/28 12:31:45;;;;;;;47.80;24.40;;;;;;;-1.85;78.96;97685.64;212443;1326;22828;-75
2021/12/28 12:38:24;;;;;;;46.50;25.30;;;;;;;-1.82;79.12;97679.88;212432;1327;22603;-75
2021/12/28 12:52:33;;;;;;;47.80;23.80;;;;;;;-1.60;79.32;97679.36;213176;1323;22656;-74
2021/12/28 13:06:00;;;;;;;;;;;;;;;;;;;;;
2021/12/28 13:27:08;;;;;;;48.10;23.70;;;;;;;-1.48;78.83;97650.89;212615;1329;22615;-75
2021/12/28 13:33:19;;;;;;;51.10;25.70;;;;;;;-1.41;78.75;97649.26;213637;1323;22599;-74
2021/12/28 13:38:49;;;;;;;42.70;21.40;;;;;;;-1.42;78.66;97640.80;213531;1320;22695;-74
2021/12/28 13:51:57;;;;;;;46.40;23.00;;;;;;;-1.42;78.50;97631.23;213963;1323;25468;-75
2021/12/28 13:58:27;;;;;;;;;;;;;;;;;;;;;
2021/12/28 14:04:47;;;;;;;;;;;;;;;;;;;;;
2021/12/28 14:10:47;;;;;;;;;;;;;;;;;;;;;
2021/12/28 14:17:14;;;;;;;43.00;20.30;;;;;;;-1.16;78.52;97629.79;213677;1322;22813;-74
2021/12/28 14:23:46;;;;;;;51.20;25.70;;;;;;;-1.18;78.19;97619.61;213517;1321;22929;-74
2021/12/28 14:30:23;;;;;;;49.40;23.90;;;;;;;-1.25;77.99;97614.50;213847;1327;24390;-76
2021/12/28 14:37:01;;;;;;;;;;;;;;;;;;;;;
2021/12/28 14:42:47;;;;;;;55.20;27.00;;;;;;;-1.52;78.10;97613.48;213174;1327;22688;-75
2021/12/28 14:49:45;;;;;;;45.30;24.10;;;;;;;-1.63;78.45;97616.55;213871;1329;22901;-75
2021/12/28 14:55:57;;;;;;;;;;;;;;;;;;;;;
2021/12/28 15:02:05;;;;;;;;;;;;;;;;;;;;;
2021/12/28 15:15:28;;;;;;;;;;;;;;;;;;;;;
2021/12/28 15:21:17;;;;;;;44.30;24.00;;;;;;;-2.15;78.33;97613.01;212894;1330;23841;-76
2021/12/28 15:27:18;;;;;;;50.30;25.30;;;;;;;-2.30;78.34;97594.95;213570;1329;24278;-75
2021/12/28 15:34:11;;;;;;;;;;;;;;;;;;;;;
2021/12/28 15:41:13;;;;;;;;;;;;;;;;;;;;;
2021/12/28 15:48:18;;;;;;;45.20;22.90;;;;;;;-2.63;78.59;97597.89;213669;1329;22891;-75
2021/12/28 15:55:03;;;;;;;;;;;;;;;;;;;;;
2021/12/28 16:22:19;;;;;;;45.80;23.80;;;;;;;-2.98;79.11;97609.11;213282;1329;24228;-74
2021/12/28 16:27:47;;;;;;;55.30;25.80;;;;;;;-2.90;79.35;97606.23;213401;1325;22660;-75
2021/12/28 16:33:38;;;;;;;62.00;27.40;;;;;;;-2.85;79.36;97596.33;213562;1329;22562;-76
2021/12/28 16:39:41;;;;;;;63.00;29.80;;;;;;;-2.77;79.39;97592.35;213509;1329;22615;-74
2021/12/28 16:45:30;;;;;;;54.90;26.30;;;;;;;-2.63;79.34;97591.74;213725;1329;22616;-75
2021/12/28 16:51:10;;;;;;;56.30;28.00;;;;;;;-2.56;79.33;97586.27;213928;1329;22724;-76
2021/12/28 16:56:41;;;;;;;49.70;26.80;;;;;;;-2.52;79.31;97576.90;213531;1329;22683;-75
2021/12/28 17:02:06;;;;;;;57.60;27.50;;;;;;;-2.49;79.16;97571.45;213861;1329;24292;-75
2021/12/28 17:13:21;;;;;;;58.30;28.50;;;;;;;-2.61;79.14;97552.83;213412;1329;22587;-74
2021/12/28 17:18:24;;;;;;;56.80;29.60;;;;;;;-2.73;78.82;97550.23;213440;1326;25606;-74
2021/12/28 17:23:27;;;;;;;61.50;28.40;;;;;;;-2.85;79.06;97544.02;212921;1324;22641;-74
2021/12/28 17:29:06;;;;;;;53.70;26.00;;;;;;;-2.95;79.00;97541.66;213349;1329;25934;-74
2021/12/28 17:34:47;;;;;;;52.70;25.30;;;;;;;-3.07;79.01;97543.69;213064;1329;22961;-74
2021/12/28 17:40:20;;;;;;;;;;;;;;;;;;;;;
2021/12/28 17:45:26;;;;;;;53.50;26.90;;;;;;;-3.30;79.04;97538.16;213457;1329;22587;-75
2021/12/28 17:56:46;;;;;;;46.50;22.40;;;;;;;-3.30;79.66;97524.95;213106;1329;22654;-75
2021/12/28 18:02:13;;;;;;;53.50;24.20;;;;;;;-3.28;79.65;97523.95;213217;1329;23725;-73
2021/12/28 18:07:18;;;;;;;50.50;23.20;;;;;;;-3.24;79.77;97514.76;213156;1329;22932;-76
2021/12/28 18:12:26;;;;;;;49.70;23.00;;;;;;;-3.23;79.75;97508.56;213113;1327;22869;-75
2021/12/28 18:17:35;;;;;;;55.70;24.90;;;;;;;-3.24;79.65;97507.64;213243;1329;22691;-75
2021/12/28 18:23:00;;;;;;;;;;;;;;;;;;;;;
2021/12/28 18:28:16;;;;;;;59.20;27.80;;;;;;;-3.35;79.65;97491.73;213247;1329;24233;-75
2021/12/28 18:33:38;;;;;;;52.60;26.80;;;;;;;-3.46;79.52;97486.70;213419;1329;22745;-74
2021/12/28 18:39:15;;;;;;;47.30;25.60;;;;;;;-3.52;80.07;97495.73;213404;1329;22736;-75
2021/12/28 18:44:22;;;;;;;54.50;26.90;;;;;;;-3.54;80.22;97491.30;213352;1329;23978;-75
2021/12/28 18:49:30;;;;;;;57.00;27.90;;;;;;;-3.56;80.24;97490.14;213507;1328;22750;-76
2021/12/28 18:55:07;;;;;;;57.10;27.80;;;;;;;-3.58;80.13;97497.58;212700;1332;23377;-75
2021/12/28 19:00:23;;;;;;;51.10;26.00;;;;;;;-3.58;80.33;97492.30;212573;1332;22661;-75
2021/12/28 19:05:59;;;;;;;58.50;28.10;;;;;;;-3.58;80.50;97495.29;212725;1327;22698;-75
2021/12/28 19:11:59;;;;;;;66.20;31.90;;;;;;;-3.58;80.31;97491.25;212722;1332;22749;-75
2021/12/28 19:17:30;;;;;;;60.90;30.30;;;;;;;-3.59;80.42;97496.11;212664;1329;22622;-76
2021/12/28 19:22:43;;;;;;;59.60;27.60;;;;;;;-3.60;80.38;97486.30;213356;1329;26955;-76
2021/12/28 19:27:47;;;;;;;56.20;30.60;;;;;;;-3.62;80.50;97488.77;213287;1325;26005;-76
2021/12/28 19:33:22;;;;;;;64.10;32.70;;;;;;;-3.59;80.58;97491.08;213472;1323;23277;-76
2021/12/28 19:38:40;;;;;;;;;;;;;;;;;;;;;
2021/12/28 19:44:04;;;;;;;;;;;;;;;;;;;;;
2021/12/28 19:49:21;;;;;;;83.80;39.10;;;;;;;-3.40;80.97;97467.13;213536;1329;22690;-77
2021/12/28 19:54:47;;;;;;;76.20;35.70;;;;;;;-3.35;80.83;97466.39;213357;1329;22684;-75
2021/12/28 20:00:11;;;;;;;71.90;34.10;;;;;;;-3.33;80.75;97468.80;213297;1329;22720;-75
2021/12/28 20:05:16;;;;;;;69.20;34.30;;;;;;;-3.33;80.83;97470.20;213506;1328;22837;-75
2021/12/28 20:11:11;;;;;;;67.60;35.90;;;;;;;-3.32;80.67;97463.42;213565;1328;22978;-76
2021/12/28 20:16:43;;;;;;;116.60;60.10;;;;;;;-3.32;80.58;97462.27;213444;1329;24278;-76
2021/12/28 20:22:30;;;;;;;88.60;41.00;;;;;;;-3.27;81.01;97461.48;213383;1327;22917;-75
2021/12/28 20:27:53;;;;;;;88.10;41.90;;;;;;;-3.21;81.04;97456.45;213193;1329;24007;-76
2021/12/28 20:33:03;;;;;;;75.00;35.60;;;;;;;-3.20;80.68;97454.39;213033;1329;22829;-76
2021/12/28 20:38:28;;;;;;;69.60;35.60;;;;;;;-3.23;80.66;97455.11;213375;1329;22735;-75
2021/12/28 20:43:50;;;;;;;72.80;35.40;;;;;;;-3.25;80.90;97447.27;213174;1327;23891;-76
2021/12/28 20:49:13;;;;;;;70.20;34.40;;;;;;;-3.23;80.95;97440.50;213362;1329;22839;-75
2021/12/28 20:54:52;;;;;;;63.10;33.20;;;;;;;-3.22;80.96;97428.90;213017;1330;24305;-76
2021/12/28 21:00:33;;;;;;;65.60;33.20;;;;;;;-3.19;81.01;97419.73;213222;1329;22835;-75
2021/12/28 21:06:24;;;;;;;68.30;33.80;;;;;;;-3.14;81.05;97416.86;213324;1329;23932;-75
2021/12/28 21:11:31;;;;;;;61.90;33.00;;;;;;;-3.08;81.03;97415.42;213295;1329;23211;-76
2021/12/28 21:16:56;;;;;;;61.80;32.30;;;;;;;-3.09;81.03;97408.18;213213;1329;25964;-75
2021/12/28 21:22:26;;;;;;;62.80;32.20;;;;;;;-3.04;81.14;97400.36;213029;1328;24310;-74
2021/12/28 21:27:53;;;;;;;;;;;;;;;;;;;;;
2021/12/28 21:33:21;;;;;;;67.20;34.20;;;;;;;-3.06;81.02;97384.19;213341;1327;22734;-75
2021/12/28 21:38:43;;;;;;;68.20;34.90;;;;;;;-3.09;81.12;97380.41;213134;1329;22766;-75
2021/12/28 21:44:15;;;;;;;62.20;30.00;;;;;;;-3.10;81.13;97378.88;213228;1329;22717;-76
2021/12/28 21:49:24;;;;;;;69.00;33.00;;;;;;;-3.14;81.08;97385.19;213320;1328;24230;-77
2021/12/28 21:54:47;;;;;;;77.70;37.80;;;;;;;-3.16;81.08;97389.02;213218;1328;24259;-75
2021/12/28 22:00:19;;;;;;;73.10;33.10;;;;;;;-3.20;80.96;97399.33;213310;1329;22801;-75
2021/12/28 22:05:35;;;;;;;78.00;38.10;;;;;;;-3.22;81.22;97400.43;213403;1329;22659;-75
2021/12/28 22:10:43;;;;;;;87.00;41.20;;;;;;;-3.27;81.21;97397.53;213353;1328;22784;-76
2021/12/28 22:16:02;;;;;;;89.00;41.50;;;;;;;-3.31;81.24;97404.42;213584;1329;22690;-75
2021/12/28 22:21:23;;;;;;;;;;;;;;;;;;;;;
2021/12/28 22:27:15;;;;;;;91.10;41.30;;;;;;;-3.26;81.61;97412.25;213445;1325;24334;-76
2021/12/28 22:32:20;;;;;;;89.40;45.50;;;;;;;-3.21;81.62;97406.13;213312;1329;25569;-75
2021/12/28 22:37:35;;;;;;;98.60;45.20;;;;;;;-3.17;81.75;97403.53;213457;1329;25290;-75
2021/12/28 22:43:12;;;;;;;113.00;50.80;;;;;;;-3.14;81.80;97395.63;213172;1329;25603;-75
2021/12/28 22:48:18;;;;;;;94.40;46.00;;;;;;;-3.08;81.61;97396.27;213327;1327;22876;-75
2021/12/28 22:53:25;;;;;;;101.60;46.50;;;;;;;-2.99;81.83;97401.04;213355;1329;24305;-74
2021/12/28 22:58:28;;;;;;;89.70;41.60;;;;;;;-2.93;81.86;97414.28;213238;1329;22634;-75
2021/12/28 23:04:07;;;;;;;92.80;44.70;;;;;;;-2.92;81.73;97418.86;213354;1330;22646;-75
2021/12/28 23:10:15;;;;;;;88.80;44.00;;;;;;;-2.84;81.94;97420.69;213511;1330;22582;-76
2021/12/28 23:15:29;;;;;;;96.90;43.80;;;;;;;-2.70;82.04;97412.50;213327;1330;23084;-76
2021/12/28 23:21:03;;;;;;;;;;;;;;;;;;;;;
2021/12/28 23:27:16;;;;;;;138.10;54.20;;;;;;;-2.59;81.82;97414.84;213445;1328;22875;-75
2021/12/28 23:39:37;;;;;;;101.20;43.90;;;;;;;-2.50;81.91;97407.79;209490;1330;5351464;-76
2021/12/28 23:45:55;;;;;;;80.60;37.30;;;;;;;-2.42;81.95;97393.72;213192;1330;22750;-75
2021/12/28 23:52:50;;;;;;;103.20;43.80;;;;;;;-2.37;81.98;97393.38;213635;1329;22592;-74
2021/12/28 23:59:03;;;;;;;86.70;40.40;;;;;;;-2.35;81.74;97393.52;213354;1328;22637;-75
